createdAt,value
2023-11-23T00:00:20.822Z,9.30
2023-11-23T00:02:48.255Z,9.30
2023-11-23T00:05:15.556Z,9.30
2023-11-23T00:07:42.736Z,9.30
2023-11-23T00:10:12.087Z,9.30
2023-11-23T00:12:39.253Z,9.30
2023-11-23T00:15:06.685Z,9.30
2023-11-23T00:17:34.011Z,9.30
2023-11-23T00:20:01.640Z,9.40
2023-11-23T00:22:28.717Z,9.40
2023-11-23T00:24:56.642Z,9.40
2023-11-23T00:27:23.630Z,9.40
2023-11-23T00:29:51.042Z,9.40
2023-11-23T00:35:05.208Z,9.40
2023-11-23T00:37:32.778Z,9.50
2023-11-23T00:40:00.268Z,9.50
2023-11-23T00:42:27.409Z,9.50
2023-11-23T00:44:54.679Z,9.50
2023-11-23T00:47:22.457Z,9.50
2023-11-23T00:49:49.700Z,9.50
2023-11-23T00:52:17.712Z,9.50
2023-11-23T00:54:45.163Z,9.50
2023-11-23T00:57:12.775Z,9.50
2023-11-23T00:59:39.939Z,9.50
2023-11-23T01:02:07.628Z,9.60
2023-11-23T01:04:37.480Z,9.60
2023-11-23T01:07:05.433Z,9.60
2023-11-23T01:09:32.723Z,9.60
2023-11-23T01:11:59.960Z,9.60
2023-11-23T01:14:27.274Z,9.60
2023-11-23T01:16:54.543Z,9.60
2023-11-23T01:19:21.670Z,9.60
2023-11-23T01:21:48.855Z,9.70
2023-11-23T01:24:16.125Z,9.70
2023-11-23T01:26:43.248Z,9.70
2023-11-23T01:29:10.368Z,9.70
2023-11-23T01:31:37.485Z,9.70
2023-11-23T01:34:05.214Z,9.70
2023-11-23T01:36:32.335Z,9.70
2023-11-23T01:38:59.601Z,9.80
2023-11-23T01:41:26.661Z,9.80
2023-11-23T01:43:53.710Z,9.80
2023-11-23T01:46:21.630Z,9.80
2023-11-23T01:48:49.008Z,9.80
2023-11-23T01:51:17.040Z,9.80
2023-11-23T01:53:44.214Z,9.80
2023-11-23T01:56:12.395Z,9.80
2023-11-23T01:58:39.490Z,9.80
2023-11-23T02:01:06.691Z,9.80
2023-11-23T02:03:34.815Z,9.80
2023-11-23T02:06:02.117Z,9.90
2023-11-23T02:08:29.300Z,9.90
2023-11-23T02:10:56.648Z,9.90
2023-11-23T02:13:23.807Z,9.90
2023-11-23T02:15:51.017Z,9.90
2023-11-23T02:18:18.289Z,9.90
2023-11-23T02:20:47.947Z,9.90
2023-11-23T02:23:15.206Z,9.90
2023-11-23T02:25:42.271Z,9.90
2023-11-23T02:28:09.874Z,9.90
2023-11-23T02:30:36.922Z,10.00
2023-11-23T02:33:05.607Z,10.00
2023-11-23T02:35:32.743Z,10.00
2023-11-23T02:37:59.684Z,10.00
2023-11-23T02:40:27.247Z,10.00
2023-11-23T02:42:54.463Z,10.00
2023-11-23T02:45:22.520Z,10.00
2023-11-23T02:47:50.987Z,10.00
2023-11-23T02:50:18.219Z,10.00
2023-11-23T02:52:45.365Z,10.00
2023-11-23T02:55:12.730Z,10.10
2023-11-23T02:57:39.959Z,10.10
2023-11-23T03:00:08.856Z,10.00
2023-11-23T03:02:36.130Z,10.10
2023-11-23T03:05:03.590Z,10.10
2023-11-23T03:07:31.224Z,10.10
2023-11-23T03:09:58.342Z,10.10
2023-11-23T03:12:27.272Z,10.10
2023-11-23T03:14:54.397Z,10.10
2023-11-23T03:17:21.580Z,10.10
2023-11-23T03:19:48.888Z,10.20
2023-11-23T03:22:15.952Z,10.20
2023-11-23T03:24:43.953Z,10.20
2023-11-23T03:27:10.992Z,10.20
2023-11-23T03:29:38.109Z,10.20
2023-11-23T03:32:05.281Z,10.20
2023-11-23T03:34:32.948Z,10.20
2023-11-23T03:37:00.260Z,10.30
2023-11-23T03:39:28.050Z,10.30
2023-11-23T03:41:55.296Z,10.30
2023-11-23T03:44:22.350Z,10.30
2023-11-23T03:46:49.614Z,10.30
2023-11-23T03:49:16.746Z,10.40
2023-11-23T03:51:43.917Z,10.40
2023-11-23T03:54:11.104Z,10.40
2023-11-23T03:56:40.430Z,10.40
2023-11-23T03:59:08.112Z,10.40
2023-11-23T04:01:35.343Z,10.40
2023-11-23T04:04:04.412Z,10.40
2023-11-23T04:06:31.596Z,10.50
2023-11-23T04:08:58.833Z,10.50
2023-11-23T04:11:25.904Z,10.50
2023-11-23T04:13:52.919Z,10.50
2023-11-23T04:16:19.911Z,10.50
2023-11-23T04:18:47.686Z,10.50
2023-11-23T04:21:15.428Z,10.50
2023-11-23T04:23:42.532Z,10.50
2023-11-23T04:26:09.595Z,10.60
2023-11-23T04:28:37.343Z,10.60
2023-11-23T04:31:04.804Z,10.60
2023-11-23T04:33:32.015Z,10.60
2023-11-23T04:35:59.305Z,10.60
2023-11-23T04:38:26.489Z,10.60
2023-11-23T04:40:53.443Z,10.60
2023-11-23T04:43:20.555Z,10.60
2023-11-23T04:45:48.836Z,10.70
2023-11-23T04:50:46.845Z,10.70
2023-11-23T04:53:19.067Z,10.70
2023-11-23T04:55:47.883Z,10.70
2023-11-23T04:58:15.052Z,10.70
2023-11-23T05:00:42.313Z,10.70
2023-11-23T05:03:09.892Z,10.70
2023-11-23T05:05:37.021Z,10.70
2023-11-23T05:08:04.118Z,10.70
2023-11-23T05:10:31.104Z,10.70
2023-11-23T05:12:58.136Z,10.70
2023-11-23T05:15:25.399Z,10.70
2023-11-23T05:17:52.566Z,10.70
2023-11-23T05:20:20.295Z,10.80
2023-11-23T05:22:47.358Z,10.80
2023-11-23T05:25:14.607Z,10.80
2023-11-23T05:27:41.722Z,10.70
2023-11-23T05:30:09.147Z,10.70
2023-11-23T05:32:36.308Z,10.80
2023-11-23T05:35:03.696Z,10.80
2023-11-23T05:37:30.853Z,10.80
2023-11-23T05:39:58.298Z,10.80
2023-11-23T05:42:25.479Z,10.80
2023-11-23T05:44:52.723Z,10.80
2023-11-23T05:47:20.018Z,10.80
2023-11-23T05:49:47.533Z,10.80
2023-11-23T05:52:14.530Z,10.80
2023-11-23T05:54:41.863Z,10.80
2023-11-23T05:57:09.198Z,10.80
2023-11-23T05:59:37.933Z,10.80
2023-11-23T06:02:07.136Z,10.80
2023-11-23T06:04:34.408Z,10.80
2023-11-23T06:07:01.614Z,10.80
2023-11-23T06:09:29.274Z,10.80
2023-11-23T06:11:56.501Z,10.80
2023-11-23T06:14:23.619Z,10.80
2023-11-23T06:16:51.262Z,10.80
2023-11-23T06:19:19.025Z,10.80
2023-11-23T06:21:46.644Z,10.70
2023-11-23T06:24:13.719Z,10.70
2023-11-23T06:26:40.963Z,10.70
2023-11-23T06:29:07.955Z,10.70
2023-11-23T06:31:35.914Z,10.70
2023-11-23T06:34:02.993Z,10.70
2023-11-23T06:36:30.566Z,10.70
2023-11-23T06:38:57.800Z,10.70
2023-11-23T06:41:24.892Z,10.60
2023-11-23T06:43:53.217Z,10.60
2023-11-23T06:46:21.436Z,10.60
2023-11-23T06:48:49.091Z,10.60
2023-11-23T06:51:16.591Z,10.60
2023-11-23T06:53:48.143Z,10.60
2023-11-23T06:56:15.798Z,10.50
2023-11-23T06:58:43.350Z,10.50
2023-11-23T07:01:10.937Z,10.50
2023-11-23T07:03:39.128Z,10.50
2023-11-23T07:06:07.226Z,10.50
2023-11-23T07:08:37.771Z,10.50
2023-11-23T07:11:08.021Z,10.50
2023-11-23T07:13:35.506Z,10.40
2023-11-23T07:16:04.520Z,10.30
2023-11-23T07:18:32.211Z,10.30
2023-11-23T07:20:59.537Z,10.30
2023-11-23T07:23:26.868Z,10.30
2023-11-23T07:25:54.326Z,10.30
2023-11-23T07:28:27.000Z,10.30
2023-11-23T07:30:55.084Z,10.20
2023-11-23T07:33:22.729Z,10.20
2023-11-23T07:35:51.612Z,10.20
2023-11-23T07:38:19.872Z,10.20
2023-11-23T07:40:47.126Z,10.20
2023-11-23T07:43:14.189Z,10.20
2023-11-23T07:45:41.239Z,10.10
2023-11-23T07:48:15.609Z,10.10
2023-11-23T07:50:47.041Z,10.20
2023-11-23T07:53:14.258Z,10.10
2023-11-23T07:55:41.257Z,10.10
2023-11-23T07:58:09.027Z,10.10
2023-11-23T08:00:39.425Z,10.20
2023-11-23T08:03:07.175Z,10.20
2023-11-23T08:05:36.564Z,10.20
2023-11-23T08:08:04.482Z,10.20
2023-11-23T08:10:31.577Z,10.20
2023-11-23T08:12:59.826Z,10.20
2023-11-23T08:15:26.962Z,10.30
2023-11-23T08:18:01.855Z,10.30
2023-11-23T08:20:35.281Z,10.30
2023-11-23T08:23:02.458Z,10.40
2023-11-23T08:25:29.514Z,10.40
2023-11-23T08:27:56.929Z,10.50
2023-11-23T08:30:24.218Z,10.50
2023-11-23T08:32:51.886Z,10.50
2023-11-23T08:35:19.216Z,10.50
2023-11-23T08:37:46.897Z,10.50
2023-11-23T08:40:14.205Z,10.50
2023-11-23T08:42:41.288Z,10.60
2023-11-23T08:45:09.252Z,10.60
2023-11-23T08:47:36.427Z,10.60
2023-11-23T08:50:04.042Z,10.60
2023-11-23T08:52:31.125Z,10.70
2023-11-23T08:55:01.133Z,10.70
2023-11-23T08:57:29.949Z,10.80
2023-11-23T08:59:57.211Z,10.90
2023-11-23T09:02:24.423Z,10.90
2023-11-23T09:04:52.684Z,10.90
2023-11-23T09:07:21.612Z,11.00
2023-11-23T09:09:48.938Z,11.10
2023-11-23T09:12:16.154Z,11.20
2023-11-23T09:14:49.163Z,11.30
2023-11-23T09:17:18.237Z,11.30
2023-11-23T09:19:46.568Z,11.40
2023-11-23T09:22:15.259Z,11.40
2023-11-23T09:24:42.766Z,11.50
2023-11-23T09:27:11.384Z,11.60
2023-11-23T09:29:38.676Z,11.60
2023-11-23T09:32:06.880Z,11.70
2023-11-23T09:34:34.223Z,11.70
2023-11-23T09:37:01.417Z,11.80
2023-11-23T09:39:29.506Z,11.80
2023-11-23T09:41:59.386Z,11.90
2023-11-23T09:44:27.673Z,12.00
2023-11-23T09:46:55.028Z,12.10
2023-11-23T09:49:22.767Z,12.10
2023-11-23T09:51:50.635Z,12.20
2023-11-23T09:54:20.007Z,12.30
2023-11-23T09:56:47.816Z,12.40
2023-11-23T09:59:14.866Z,12.50
2023-11-23T10:04:26.626Z,12.50
2023-11-23T10:06:53.787Z,12.60
2023-11-23T10:09:24.095Z,12.60
2023-11-23T10:11:51.397Z,12.70
2023-11-23T10:14:19.051Z,12.70
2023-11-23T10:16:46.111Z,12.70
2023-11-23T10:19:22.866Z,12.70
2023-11-23T10:21:50.518Z,12.70
2023-11-23T10:24:18.238Z,12.80
2023-11-23T10:26:45.453Z,12.90
2023-11-23T10:29:13.216Z,13.00
2023-11-23T10:31:40.267Z,13.00
2023-11-23T10:34:09.639Z,13.00
2023-11-23T10:36:40.961Z,13.10
2023-11-23T10:39:12.914Z,13.10
2023-11-23T10:41:43.402Z,13.10
2023-11-23T10:44:11.369Z,13.10
2023-11-23T10:46:41.326Z,13.10
2023-11-23T10:49:08.672Z,13.20
2023-11-23T10:51:36.539Z,13.20
2023-11-23T10:54:04.278Z,13.20
2023-11-23T10:56:32.033Z,13.20
2023-11-23T10:59:04.607Z,13.20
2023-11-23T11:01:32.305Z,13.20
2023-11-23T11:04:00.221Z,13.20
2023-11-23T11:06:27.762Z,13.20
2023-11-23T11:08:54.808Z,13.30
2023-11-23T11:11:23.012Z,13.40
2023-11-23T11:13:50.439Z,13.40
2023-11-23T11:16:19.047Z,13.50
2023-11-23T11:18:53.443Z,13.50
2023-11-23T11:21:22.533Z,13.50
2023-11-23T11:23:54.560Z,13.50
2023-11-23T11:26:21.671Z,13.60
2023-11-23T11:29:02.649Z,13.70
2023-11-23T11:31:29.737Z,13.70
2023-11-23T11:33:57.056Z,13.70
2023-11-23T11:36:26.482Z,13.70
2023-11-23T11:38:58.187Z,13.70
2023-11-23T11:41:27.984Z,13.80
2023-11-23T11:43:56.169Z,13.80
2023-11-23T11:46:23.231Z,13.90
2023-11-23T11:48:50.441Z,13.90
2023-11-23T11:51:17.515Z,13.90
2023-11-23T11:53:45.293Z,14.00
2023-11-23T11:56:14.551Z,14.00
2023-11-23T11:58:41.650Z,14.00
2023-11-23T12:01:12.162Z,13.90
2023-11-23T12:03:39.342Z,13.90
2023-11-23T12:06:06.772Z,13.90
2023-11-23T12:08:37.089Z,13.90
2023-11-23T12:11:04.728Z,13.80
2023-11-23T12:13:33.603Z,13.80
2023-11-23T12:16:00.999Z,13.80
2023-11-23T12:18:31.586Z,13.70
2023-11-23T12:20:58.816Z,13.70
2023-11-23T12:23:27.587Z,13.60
2023-11-23T12:25:55.783Z,13.50
2023-11-23T12:28:23.618Z,13.50
2023-11-23T12:30:51.960Z,13.50
2023-11-23T12:33:19.705Z,13.40
2023-11-23T12:35:47.048Z,13.40
2023-11-23T12:38:14.134Z,13.40
2023-11-23T12:40:41.184Z,13.40
2023-11-23T12:43:08.415Z,13.40
2023-11-23T12:45:37.541Z,13.40
2023-11-23T12:48:05.342Z,13.40
2023-11-23T12:50:32.641Z,13.40
2023-11-23T12:53:00.304Z,13.40
2023-11-23T12:55:27.372Z,13.40
2023-11-23T12:57:55.681Z,13.30
2023-11-23T13:00:26.707Z,13.30
2023-11-23T13:02:53.840Z,13.30
2023-11-23T13:05:20.959Z,13.40
2023-11-23T13:07:48.116Z,13.30
2023-11-23T13:10:17.841Z,13.40
2023-11-23T13:12:45.219Z,13.30
2023-11-23T13:15:15.373Z,13.40
2023-11-23T13:17:44.576Z,13.40
2023-11-23T13:20:12.199Z,13.30
2023-11-23T13:22:39.395Z,13.30
2023-11-23T13:25:07.688Z,13.30
2023-11-23T13:27:34.895Z,13.40
2023-11-23T13:30:03.251Z,13.30
2023-11-23T13:32:30.347Z,13.30
2023-11-23T13:34:58.202Z,13.40
2023-11-23T13:37:25.359Z,13.30
2023-11-23T13:39:54.013Z,13.40
2023-11-23T13:42:21.811Z,13.50
2023-11-23T13:44:50.285Z,13.40
2023-11-23T13:47:17.663Z,13.40
2023-11-23T13:49:44.808Z,13.40
2023-11-23T13:52:12.134Z,13.50
2023-11-23T13:54:40.459Z,13.50
2023-11-23T13:57:09.081Z,13.60
2023-11-23T13:59:36.206Z,13.70
2023-11-23T14:02:04.416Z,13.70
2023-11-23T14:04:33.038Z,13.80
2023-11-23T14:07:00.417Z,13.80
2023-11-23T14:09:29.948Z,13.90
2023-11-23T14:12:00.131Z,13.90
2023-11-23T14:14:28.783Z,14.00
2023-11-23T14:16:55.862Z,14.00
2023-11-23T14:19:23.054Z,14.10
2023-11-23T14:21:52.274Z,14.10
2023-11-23T14:24:20.927Z,14.10
2023-11-23T14:26:50.636Z,14.10
2023-11-23T14:29:18.215Z,14.10
2023-11-23T14:31:47.864Z,14.10
2023-11-23T14:34:15.129Z,14.00
2023-11-23T14:36:42.694Z,14.00
2023-11-23T14:39:09.927Z,14.00
2023-11-23T14:41:37.660Z,14.00
2023-11-23T14:44:04.946Z,14.10
2023-11-23T14:46:32.058Z,14.00
2023-11-23T14:48:59.169Z,13.90
2023-11-23T14:51:30.812Z,13.90
2023-11-23T14:54:04.156Z,13.90
2023-11-23T14:56:37.438Z,13.90
2023-11-23T14:59:07.040Z,13.90
2023-11-23T15:01:37.333Z,13.80
2023-11-23T15:09:37.164Z,13.80
2023-11-23T15:12:04.520Z,13.80
2023-11-23T15:14:32.853Z,13.70
2023-11-23T15:17:00.212Z,13.70
2023-11-23T15:19:27.647Z,13.70
2023-11-23T15:21:54.702Z,13.70
2023-11-23T15:24:22.727Z,13.70
2023-11-23T15:26:49.790Z,13.70
2023-11-23T15:29:16.808Z,13.70
2023-11-23T15:31:44.618Z,13.60
2023-11-23T15:34:11.870Z,13.60
2023-11-23T15:36:40.637Z,13.50
2023-11-23T15:39:08.610Z,13.50
2023-11-23T15:41:36.075Z,13.40
2023-11-23T15:44:06.919Z,13.40
2023-11-23T15:46:34.485Z,13.40
2023-11-23T15:49:02.962Z,13.30
2023-11-23T15:51:30.408Z,13.30
2023-11-23T15:53:58.333Z,13.30
2023-11-23T15:56:26.462Z,13.20
2023-11-23T15:58:53.585Z,13.20
2023-11-23T16:01:24.438Z,13.20
2023-11-23T16:03:52.236Z,13.10
2023-11-23T16:06:19.409Z,13.10
2023-11-23T16:08:46.681Z,13.10
2023-11-23T16:11:17.827Z,13.10
2023-11-23T16:13:46.673Z,13.10
2023-11-23T16:16:13.811Z,13.00
2023-11-23T16:18:41.244Z,13.10
2023-11-23T16:29:39.323Z,13.00
2023-11-23T16:32:06.773Z,13.00
2023-11-23T16:34:34.238Z,13.00
2023-11-23T16:37:01.361Z,13.10
2023-11-23T16:39:30.383Z,13.20
2023-11-23T16:41:57.486Z,13.40
2023-11-23T16:44:24.500Z,13.50
2023-11-23T16:46:52.716Z,13.60
2023-11-23T16:49:20.798Z,13.50
2023-11-23T16:51:48.404Z,13.50
2023-11-23T16:54:17.717Z,13.50
2023-11-23T16:56:45.476Z,13.50
2023-11-23T16:59:12.729Z,13.50
2023-11-23T17:01:40.201Z,13.50
2023-11-23T17:04:08.050Z,13.50
2023-11-23T17:06:37.070Z,13.50
2023-11-23T17:09:04.676Z,13.40
2023-11-23T17:11:33.127Z,13.50
2023-11-23T17:14:00.937Z,13.50
2023-11-23T17:16:28.102Z,13.50
2023-11-23T17:18:55.702Z,13.40
2023-11-23T17:21:22.892Z,13.40
2023-11-23T17:23:49.983Z,13.50
2023-11-23T17:26:17.692Z,13.40
2023-11-23T17:28:44.889Z,13.40
2023-11-23T17:31:12.041Z,13.40
2023-11-23T17:33:40.390Z,13.40
2023-11-23T17:36:07.865Z,13.40
2023-11-23T17:38:35.436Z,13.40
2023-11-23T17:41:02.512Z,13.40
2023-11-23T17:43:29.530Z,13.40
2023-11-23T17:45:56.802Z,13.30
2023-11-23T17:48:27.414Z,13.30
2023-11-23T17:50:54.768Z,13.30
2023-11-23T17:53:23.248Z,13.30
2023-11-23T17:55:50.629Z,13.30
2023-11-23T17:58:17.960Z,13.30
2023-11-23T18:00:46.362Z,13.30
2023-11-23T18:03:13.585Z,13.30
2023-11-23T18:05:43.919Z,13.30
2023-11-23T18:08:11.623Z,13.30
2023-11-23T18:10:39.712Z,13.30
2023-11-23T18:13:06.925Z,13.20
2023-11-23T18:15:35.019Z,13.20
2023-11-23T18:18:02.514Z,13.20
2023-11-23T18:20:30.331Z,13.20
2023-11-23T18:23:00.531Z,13.20
2023-11-23T18:25:27.623Z,13.10
2023-11-23T18:27:54.805Z,13.10
2023-11-23T18:30:22.016Z,13.10
2023-11-23T18:32:49.301Z,13.10
2023-11-23T18:35:19.655Z,13.10
2023-11-23T18:37:46.861Z,13.10
2023-11-23T18:40:17.850Z,13.10
2023-11-23T18:42:46.144Z,13.10
2023-11-23T18:45:14.477Z,13.10
2023-11-23T18:47:43.252Z,13.10
2023-11-23T18:50:13.725Z,13.00
2023-11-23T18:52:41.773Z,13.10
2023-11-23T18:55:10.667Z,13.00
2023-11-23T18:57:38.897Z,13.00
2023-11-23T19:00:13.376Z,13.00
2023-11-23T19:02:42.204Z,13.00
2023-11-23T19:05:15.445Z,13.00
2023-11-23T19:07:46.095Z,13.00
2023-11-23T19:10:15.588Z,12.90
2023-11-23T19:13:00.455Z,12.90
2023-11-23T19:15:32.973Z,12.90
2023-11-23T19:18:00.325Z,12.90
2023-11-23T19:20:27.835Z,13.00
2023-11-23T19:22:55.039Z,12.90
2023-11-23T19:25:26.163Z,12.90
2023-11-23T19:27:56.066Z,12.90
2023-11-23T19:30:25.430Z,12.90
2023-11-23T19:32:53.117Z,12.90
2023-11-23T19:35:21.187Z,12.90
2023-11-23T19:37:50.560Z,12.90
2023-11-23T19:40:19.233Z,12.90
2023-11-23T19:42:47.356Z,12.90
2023-11-23T19:45:14.742Z,12.90
2023-11-23T19:47:42.219Z,12.90
2023-11-23T19:50:09.757Z,12.90
2023-11-23T19:52:42.492Z,12.90
2023-11-23T19:55:09.938Z,12.90
2023-11-23T19:57:38.102Z,12.90
2023-11-23T20:00:08.221Z,12.90
2023-11-23T20:02:35.821Z,12.90
2023-11-23T20:05:03.128Z,12.90
2023-11-23T20:07:30.714Z,12.90
2023-11-23T20:09:58.587Z,12.90
2023-11-23T20:12:25.870Z,12.90
2023-11-23T20:14:53.093Z,12.90
2023-11-23T20:17:21.346Z,12.90
2023-11-23T20:19:51.254Z,12.90
2023-11-23T20:22:22.285Z,12.90
2023-11-23T20:24:49.609Z,12.90
2023-11-23T20:27:17.151Z,12.90
2023-11-23T20:29:44.286Z,12.90
2023-11-23T20:32:11.503Z,12.90
2023-11-23T20:34:38.780Z,12.90
2023-11-23T20:37:05.927Z,13.00
2023-11-23T20:39:34.301Z,12.90
2023-11-23T20:42:01.504Z,12.90
2023-11-23T20:44:28.609Z,12.90
2023-11-23T20:46:57.681Z,12.90
2023-11-23T20:49:26.483Z,12.90
2023-11-23T20:51:54.217Z,12.80
2023-11-23T20:54:21.411Z,12.90
2023-11-23T20:56:48.946Z,12.90
2023-11-23T20:59:16.145Z,12.90
2023-11-23T21:01:43.700Z,12.90
2023-11-23T21:04:12.172Z,12.90
2023-11-23T21:06:44.894Z,12.90
2023-11-23T21:09:18.273Z,12.90
2023-11-23T21:11:45.366Z,12.90
2023-11-23T21:14:13.703Z,12.90
2023-11-23T21:16:41.716Z,12.90
2023-11-23T21:19:09.259Z,12.90
2023-11-23T21:21:36.433Z,12.90
2023-11-23T21:24:06.331Z,12.90
2023-11-23T21:26:35.943Z,12.90
2023-11-23T21:29:04.035Z,12.90
2023-11-23T21:31:31.207Z,12.90
2023-11-23T21:34:00.454Z,12.90
2023-11-23T21:36:28.500Z,12.90
2023-11-23T21:38:55.581Z,12.90
2023-11-23T21:41:22.789Z,13.00
2023-11-23T21:43:49.980Z,12.90
2023-11-23T21:46:24.373Z,12.90
2023-11-23T21:48:52.322Z,12.90
2023-11-23T21:51:20.177Z,12.90
2023-11-23T21:53:48.524Z,13.00
2023-11-23T21:56:15.791Z,12.90
2023-11-23T21:58:42.908Z,13.00
2023-11-23T22:01:10.228Z,13.00
2023-11-23T22:03:37.474Z,13.00
2023-11-23T22:06:06.065Z,13.00
2023-11-23T22:08:35.089Z,13.00
2023-11-23T22:11:02.149Z,13.00
2023-11-23T22:13:29.350Z,13.00
2023-11-23T22:15:56.487Z,13.00
2023-11-23T22:18:23.997Z,13.00
2023-11-23T22:20:51.255Z,13.00
2023-11-23T22:25:49.953Z,13.00
2023-11-23T22:28:17.191Z,13.00
2023-11-23T22:30:45.230Z,13.10
2023-11-23T22:33:12.868Z,13.10
2023-11-23T22:35:40.436Z,13.10
2023-11-23T22:38:07.930Z,13.10
2023-11-23T22:40:38.985Z,13.10
2023-11-23T22:43:06.268Z,13.10
2023-11-23T22:45:33.411Z,13.10
2023-11-23T22:48:00.619Z,13.10
2023-11-23T22:50:27.870Z,13.20
2023-11-23T22:52:55.126Z,13.20
2023-11-23T22:55:22.604Z,13.20
2023-11-23T22:57:49.791Z,13.20
2023-11-23T23:00:26.169Z,13.20
2023-11-23T23:06:13.042Z,13.20
2023-11-23T23:08:40.186Z,13.20
2023-11-23T23:11:07.647Z,13.20
2023-11-23T23:13:34.729Z,13.20
2023-11-23T23:16:01.874Z,13.20
2023-11-23T23:18:29.015Z,13.10
2023-11-23T23:20:56.438Z,13.00
2023-11-23T23:23:23.572Z,13.00
2023-11-23T23:25:51.753Z,13.00
2023-11-23T23:28:29.121Z,13.00
2023-11-23T23:30:59.368Z,12.90
2023-11-23T23:33:26.640Z,12.90
2023-11-23T23:35:53.990Z,12.90
2023-11-23T23:38:21.268Z,12.80
2023-11-23T23:40:51.767Z,12.70
2023-11-23T23:43:19.235Z,12.70
2023-11-23T23:45:47.713Z,12.60
2023-11-23T23:48:14.980Z,12.60
2023-11-23T23:50:42.627Z,12.70
2023-11-23T23:53:09.745Z,12.60
2023-11-23T23:55:36.823Z,12.60
2023-11-23T23:58:05.707Z,12.50
